sensor_id;sensor_type;location;lat;lon;timestamp;pressure;altitude;pressure_sealevel;temperature;humidity
49915;BME280;35806;47.958;13.158;2023-05-07T00:02:09;94652.61;;;14.52;54.28
49915;BME280;35806;47.958;13.158;2023-05-07T00:04:36;94653.53;;;14.38;55.03
49915;BME280;35806;47.958;13.158;2023-05-07T00:07:04;94655.97;;;14.44;54.69
49915;BME280;35806;47.958;13.158;2023-05-07T00:09:31;94656.95;;;12.84;57.97
49915;BME280;35806;47.958;13.158;2023-05-07T00:11:59;94659.82;;;13.45;56.67
49915;BME280;35806;47.958;13.158;2023-05-07T00:14:27;94660.55;;;13.39;57.53
49915;BME280;35806;47.958;13.158;2023-05-07T00:16:55;94663.10;;;13.27;57.32
49915;BME280;35806;47.958;13.158;2023-05-07T00:19:22;94662.65;;;13.89;55.94
49915;BME280;35806;47.958;13.158;2023-05-07T00:21:49;94661.60;;;14.09;55.60
49915;BME280;35806;47.958;13.158;2023-05-07T00:24:17;94662.25;;;13.93;55.71
49915;BME280;35806;47.958;13.158;2023-05-07T00:26:45;94662.91;;;13.50;56.68
49915;BME280;35806;47.958;13.158;2023-05-07T00:29:13;94660.89;;;13.39;57.46
49915;BME280;35806;47.958;13.158;2023-05-07T00:31:40;94658.32;;;13.59;57.73
49915;BME280;35806;47.958;13.158;2023-05-07T00:34:07;94659.23;;;13.71;56.27
49915;BME280;35806;47.958;13.158;2023-05-07T00:36:35;94658.53;;;13.25;58.37
49915;BME280;35806;47.958;13.158;2023-05-07T00:39:03;94656.87;;;14.13;56.08
49915;BME280;35806;47.958;13.158;2023-05-07T00:41:30;94660.87;;;14.13;55.71
49915;BME280;35806;47.958;13.158;2023-05-07T00:43:58;94661.57;;;13.98;55.02
49915;BME280;35806;47.958;13.158;2023-05-07T00:46:25;94660.15;;;13.99;54.48
49915;BME280;35806;47.958;13.158;2023-05-07T00:48:53;94661.69;;;13.97;54.85
49915;BME280;35806;47.958;13.158;2023-05-07T00:51:22;94664.66;;;13.75;55.65
49915;BME280;35806;47.958;13.158;2023-05-07T00:53:51;94661.79;;;13.72;56.20
49915;BME280;35806;47.958;13.158;2023-05-07T00:56:18;94662.92;;;13.44;57.00
49915;BME280;35806;47.958;13.158;2023-05-07T00:58:46;94664.89;;;13.31;55.46
49915;BME280;35806;47.958;13.158;2023-05-07T01:15:51;94672.36;;;13.00;53.92
49915;BME280;35806;47.958;13.158;2023-05-07T01:18:18;94671.02;;;14.15;53.15
49915;BME280;35806;47.958;13.158;2023-05-07T01:20:46;94667.71;;;14.07;53.66
49915;BME280;35806;47.958;13.158;2023-05-07T01:23:14;94664.01;;;13.58;55.12
49915;BME280;35806;47.958;13.158;2023-05-07T01:25:42;94663.31;;;13.11;56.69
49915;BME280;35806;47.958;13.158;2023-05-07T01:28:09;94664.54;;;13.61;56.33
49915;BME280;35806;47.958;13.158;2023-05-07T01:30:38;94661.56;;;13.64;56.70
49915;BME280;35806;47.958;13.158;2023-05-07T01:33:10;94663.27;;;13.01;57.36
49915;BME280;35806;47.958;13.158;2023-05-07T01:35:43;94662.76;;;13.36;56.87
49915;BME280;35806;47.958;13.158;2023-05-07T01:38:11;94662.63;;;13.23;57.02
49915;BME280;35806;47.958;13.158;2023-05-07T01:40:39;94662.90;;;13.73;55.34
49915;BME280;35806;47.958;13.158;2023-05-07T01:43:07;94662.49;;;13.63;54.88
49915;BME280;35806;47.958;13.158;2023-05-07T01:45:35;94659.68;;;13.19;55.56
49915;BME280;35806;47.958;13.158;2023-05-07T01:48:03;94660.08;;;13.31;54.88
49915;BME280;35806;47.958;13.158;2023-05-07T01:50:31;94660.92;;;13.80;55.33
49915;BME280;35806;47.958;13.158;2023-05-07T01:52:59;94661.24;;;12.89;56.40
49915;BME280;35806;47.958;13.158;2023-05-07T01:55:26;94657.11;;;13.65;55.27
49915;BME280;35806;47.958;13.158;2023-05-07T01:57:54;94656.42;;;12.33;57.55
49915;BME280;35806;47.958;13.158;2023-05-07T02:00:22;94659.52;;;12.88;58.30
49915;BME280;35806;47.958;13.158;2023-05-07T02:02:49;94656.01;;;12.52;58.96
49915;BME280;35806;47.958;13.158;2023-05-07T02:05:16;94652.60;;;13.39;58.04
49915;BME280;35806;47.958;13.158;2023-05-07T02:07:43;94648.14;;;13.59;57.83
49915;BME280;35806;47.958;13.158;2023-05-07T02:10:11;94647.69;;;12.89;58.70
49915;BME280;35806;47.958;13.158;2023-05-07T02:12:38;94649.44;;;13.57;58.24
49915;BME280;35806;47.958;13.158;2023-05-07T02:15:05;94650.81;;;13.40;56.86
49915;BME280;35806;47.958;13.158;2023-05-07T02:17:33;94653.01;;;13.61;57.23
49915;BME280;35806;47.958;13.158;2023-05-07T02:20:00;94652.06;;;13.52;56.28
49915;BME280;35806;47.958;13.158;2023-05-07T02:22:27;94647.67;;;13.77;56.44
49915;BME280;35806;47.958;13.158;2023-05-07T02:25:00;94643.96;;;13.10;56.59
49915;BME280;35806;47.958;13.158;2023-05-07T02:27:28;94641.90;;;13.28;56.82
49915;BME280;35806;47.958;13.158;2023-05-07T02:29:55;94638.68;;;12.60;57.61
49915;BME280;35806;47.958;13.158;2023-05-07T02:32:23;94633.48;;;13.34;56.94
49915;BME280;35806;47.958;13.158;2023-05-07T02:34:50;94631.33;;;12.75;58.27
49915;BME280;35806;47.958;13.158;2023-05-07T02:37:18;94634.88;;;13.33;57.55
49915;BME280;35806;47.958;13.158;2023-05-07T02:39:45;94634.55;;;12.82;57.88
49915;BME280;35806;47.958;13.158;2023-05-07T02:42:13;94636.12;;;12.77;58.04
49915;BME280;35806;47.958;13.158;2023-05-07T02:44:40;94637.38;;;12.68;57.96
49915;BME280;35806;47.958;13.158;2023-05-07T02:47:06;94631.65;;;13.49;56.34
49915;BME280;35806;47.958;13.158;2023-05-07T02:49:34;94627.77;;;12.67;56.88
49915;BME280;35806;47.958;13.158;2023-05-07T02:52:01;94630.01;;;12.39;56.85
49915;BME280;35806;47.958;13.158;2023-05-07T02:54:28;94637.36;;;12.84;56.46
49915;BME280;35806;47.958;13.158;2023-05-07T02:56:55;94635.85;;;12.76;56.46
49915;BME280;35806;47.958;13.158;2023-05-07T02:59:22;94635.78;;;12.17;58.09
49915;BME280;35806;47.958;13.158;2023-05-07T03:01:49;94635.46;;;12.36;57.73
49915;BME280;35806;47.958;13.158;2023-05-07T03:04:17;94635.74;;;13.22;56.13
49915;BME280;35806;47.958;13.158;2023-05-07T03:06:44;94637.23;;;13.08;55.53
49915;BME280;35806;47.958;13.158;2023-05-07T03:09:12;94639.04;;;12.65;57.06
49915;BME280;35806;47.958;13.158;2023-05-07T03:11:39;94634.13;;;12.39;57.79
49915;BME280;35806;47.958;13.158;2023-05-07T03:14:07;94633.67;;;12.71;56.85
49915;BME280;35806;47.958;13.158;2023-05-07T03:16:35;94629.83;;;12.61;57.57
49915;BME280;35806;47.958;13.158;2023-05-07T03:19:02;94630.52;;;12.48;57.24
49915;BME280;35806;47.958;13.158;2023-05-07T03:21:30;94627.26;;;13.19;57.14
49915;BME280;35806;47.958;13.158;2023-05-07T03:23:57;94627.82;;;13.28;57.62
49915;BME280;35806;47.958;13.158;2023-05-07T03:26:25;94632.18;;;13.48;55.87
49915;BME280;35806;47.958;13.158;2023-05-07T03:28:52;94635.11;;;13.05;55.51
49915;BME280;35806;47.958;13.158;2023-05-07T03:31:20;94637.04;;;13.15;57.12
49915;BME280;35806;47.958;13.158;2023-05-07T03:33:51;94638.03;;;12.54;58.37
49915;BME280;35806;47.958;13.158;2023-05-07T03:36:19;94637.52;;;12.28;60.10
49915;BME280;35806;47.958;13.158;2023-05-07T03:38:47;94638.70;;;13.11;58.08
49915;BME280;35806;47.958;13.158;2023-05-07T03:41:14;94639.03;;;12.97;58.33
49915;BME280;35806;47.958;13.158;2023-05-07T03:43:42;94635.26;;;12.49;58.87
49915;BME280;35806;47.958;13.158;2023-05-07T03:46:09;94637.87;;;13.11;58.20
49915;BME280;35806;47.958;13.158;2023-05-07T03:48:37;94638.27;;;12.71;59.59
49915;BME280;35806;47.958;13.158;2023-05-07T03:51:05;94639.68;;;12.79;59.72
49915;BME280;35806;47.958;13.158;2023-05-07T03:53:32;94641.56;;;12.50;59.29
49915;BME280;35806;47.958;13.158;2023-05-07T03:55:59;94641.66;;;12.71;59.05
49915;BME280;35806;47.958;13.158;2023-05-07T03:58:26;94641.57;;;13.49;57.14
49915;BME280;35806;47.958;13.158;2023-05-07T04:00:54;94642.26;;;13.19;57.37
49915;BME280;35806;47.958;13.158;2023-05-07T04:03:22;94645.96;;;13.78;56.38
49915;BME280;35806;47.958;13.158;2023-05-07T04:05:49;94645.74;;;13.30;56.53
49915;BME280;35806;47.958;13.158;2023-05-07T04:08:16;94650.35;;;13.69;57.07
49915;BME280;35806;47.958;13.158;2023-05-07T04:10:54;94654.18;;;12.71;58.47
49915;BME280;35806;47.958;13.158;2023-05-07T04:13:22;94655.46;;;12.94;58.04
49915;BME280;35806;47.958;13.158;2023-05-07T04:15:49;94660.92;;;12.81;58.46
49915;BME280;35806;47.958;13.158;2023-05-07T04:18:16;94661.71;;;13.27;57.31
49915;BME280;35806;47.958;13.158;2023-05-07T04:20:43;94664.47;;;13.28;57.52
49915;BME280;35806;47.958;13.158;2023-05-07T04:23:11;94667.02;;;13.91;55.47
49915;BME280;35806;47.958;13.158;2023-05-07T04:25:39;94665.82;;;13.48;56.41
49915;BME280;35806;47.958;13.158;2023-05-07T04:28:06;94666.92;;;13.13;57.29
49915;BME280;35806;47.958;13.158;2023-05-07T04:30:34;94667.33;;;13.85;56.14
49915;BME280;35806;47.958;13.158;2023-05-07T04:33:02;94667.42;;;13.49;56.84
49915;BME280;35806;47.958;13.158;2023-05-07T04:35:29;94668.59;;;13.57;57.63
49915;BME280;35806;47.958;13.158;2023-05-07T04:37:56;94664.08;;;13.62;57.10
49915;BME280;35806;47.958;13.158;2023-05-07T04:40:24;94664.16;;;13.97;56.67
49915;BME280;35806;47.958;13.158;2023-05-07T04:42:51;94665.98;;;13.64;57.57
49915;BME280;35806;47.958;13.158;2023-05-07T04:45:19;94666.34;;;14.25;56.04
49915;BME280;35806;47.958;13.158;2023-05-07T04:47:47;94664.52;;;13.91;57.58
49915;BME280;35806;47.958;13.158;2023-05-07T04:50:14;94665.70;;;13.96;57.45
49915;BME280;35806;47.958;13.158;2023-05-07T04:52:42;94663.61;;;14.02;57.20
49915;BME280;35806;47.958;13.158;2023-05-07T04:55:10;94665.06;;;14.10;56.69
49915;BME280;35806;47.958;13.158;2023-05-07T04:57:37;94669.03;;;14.11;56.05
49915;BME280;35806;47.958;13.158;2023-05-07T05:00:06;94671.67;;;14.31;55.96
49915;BME280;35806;47.958;13.158;2023-05-07T05:02:34;94670.32;;;14.03;56.91
49915;BME280;35806;47.958;13.158;2023-05-07T05:05:01;94671.08;;;14.21;57.12
49915;BME280;35806;47.958;13.158;2023-05-07T05:07:29;94676.42;;;14.64;56.23
49915;BME280;35806;47.958;13.158;2023-05-07T05:09:56;94678.95;;;14.41;57.08
49915;BME280;35806;47.958;13.158;2023-05-07T05:12:24;94681.93;;;14.48;57.57
49915;BME280;35806;47.958;13.158;2023-05-07T05:14:51;94681.54;;;14.25;57.01
49915;BME280;35806;47.958;13.158;2023-05-07T05:17:19;94686.09;;;14.51;56.72
49915;BME280;35806;47.958;13.158;2023-05-07T05:19:46;94686.66;;;14.71;56.25
49915;BME280;35806;47.958;13.158;2023-05-07T05:22:14;94692.44;;;14.60;56.14
49915;BME280;35806;47.958;13.158;2023-05-07T05:24:41;94696.43;;;15.10;55.17
49915;BME280;35806;47.958;13.158;2023-05-07T05:27:09;94698.29;;;15.48;54.10
49915;BME280;35806;47.958;13.158;2023-05-07T05:29:38;94701.85;;;15.17;55.36
49915;BME280;35806;47.958;13.158;2023-05-07T05:32:06;94702.06;;;15.15;55.14
49915;BME280;35806;47.958;13.158;2023-05-07T05:34:33;94698.12;;;15.49;54.35
49915;BME280;35806;47.958;13.158;2023-05-07T05:37:00;94698.36;;;15.76;53.89
49915;BME280;35806;47.958;13.158;2023-05-07T05:39:28;94698.21;;;15.39;55.17
49915;BME280;35806;47.958;13.158;2023-05-07T05:41:56;94698.57;;;15.21;55.67
49915;BME280;35806;47.958;13.158;2023-05-07T05:44:23;94700.66;;;15.21;55.06
49915;BME280;35806;47.958;13.158;2023-05-07T05:46:50;94698.58;;;15.03;54.45
49915;BME280;35806;47.958;13.158;2023-05-07T05:49:17;94697.19;;;15.05;54.92
49915;BME280;35806;47.958;13.158;2023-05-07T05:51:45;94698.85;;;14.66;55.80
49915;BME280;35806;47.958;13.158;2023-05-07T05:54:13;94701.29;;;14.68;55.57
49915;BME280;35806;47.958;13.158;2023-05-07T05:56:42;94701.80;;;15.23;54.75
49915;BME280;35806;47.958;13.158;2023-05-07T05:59:10;94702.82;;;15.16;55.12
49915;BME280;35806;47.958;13.158;2023-05-07T06:01:37;94700.95;;;15.04;55.26
49915;BME280;35806;47.958;13.158;2023-05-07T06:04:05;94698.28;;;14.82;55.57
49915;BME280;35806;47.958;13.158;2023-05-07T06:06:32;94700.28;;;15.23;55.26
49915;BME280;35806;47.958;13.158;2023-05-07T06:09:00;94700.44;;;14.89;54.69
49915;BME280;35806;47.958;13.158;2023-05-07T06:11:27;94701.74;;;14.44;56.34
49915;BME280;35806;47.958;13.158;2023-05-07T06:13:54;94696.79;;;14.27;56.03
49915;BME280;35806;47.958;13.158;2023-05-07T06:16:22;94698.99;;;14.32;56.66
49915;BME280;35806;47.958;13.158;2023-05-07T06:18:49;94700.10;;;14.57;56.48
49915;BME280;35806;47.958;13.158;2023-05-07T06:21:16;94699.05;;;14.58;57.04
49915;BME280;35806;47.958;13.158;2023-05-07T06:23:44;94699.72;;;14.91;57.14
49915;BME280;35806;47.958;13.158;2023-05-07T06:26:11;94700.80;;;14.31;58.45
49915;BME280;35806;47.958;13.158;2023-05-07T06:28:38;94701.70;;;14.14;59.06
49915;BME280;35806;47.958;13.158;2023-05-07T06:31:13;94701.60;;;14.67;58.45
49915;BME280;35806;47.958;13.158;2023-05-07T06:33:41;94706.56;;;14.63;58.09
49915;BME280;35806;47.958;13.158;2023-05-07T06:36:08;94706.57;;;14.71;57.82
49915;BME280;35806;47.958;13.158;2023-05-07T06:38:35;94702.88;;;15.52;57.27
49915;BME280;35806;47.958;13.158;2023-05-07T06:41:03;94704.57;;;15.40;57.07
49915;BME280;35806;47.958;13.158;2023-05-07T06:43:30;94703.27;;;15.73;56.22
49915;BME280;35806;47.958;13.158;2023-05-07T06:45:57;94708.80;;;15.36;56.18
49915;BME280;35806;47.958;13.158;2023-05-07T06:48:24;94702.90;;;15.62;56.24
49915;BME280;35806;47.958;13.158;2023-05-07T06:50:52;94707.02;;;15.47;56.30
49915;BME280;35806;47.958;13.158;2023-05-07T06:53:19;94708.97;;;16.12;54.94
49915;BME280;35806;47.958;13.158;2023-05-07T06:55:46;94704.83;;;16.43;55.02
49915;BME280;35806;47.958;13.158;2023-05-07T06:58:13;94704.28;;;16.63;53.49
49915;BME280;35806;47.958;13.158;2023-05-07T07:00:40;94706.00;;;17.02;52.53
49915;BME280;35806;47.958;13.158;2023-05-07T07:03:07;94703.75;;;16.51;52.74
49915;BME280;35806;47.958;13.158;2023-05-07T07:05:35;94704.55;;;17.70;51.02
49915;BME280;35806;47.958;13.158;2023-05-07T07:08:03;94701.69;;;17.37;51.20
49915;BME280;35806;47.958;13.158;2023-05-07T07:10:30;94705.42;;;17.29;51.86
49915;BME280;35806;47.958;13.158;2023-05-07T07:12:58;94703.14;;;17.27;49.77
49915;BME280;35806;47.958;13.158;2023-05-07T07:15:26;94704.66;;;17.02;50.94
49915;BME280;35806;47.958;13.158;2023-05-07T07:17:53;94704.44;;;17.27;50.77
49915;BME280;35806;47.958;13.158;2023-05-07T07:20:21;94704.74;;;17.73;49.59
49915;BME280;35806;47.958;13.158;2023-05-07T07:22:48;94703.91;;;17.89;49.14
49915;BME280;35806;47.958;13.158;2023-05-07T07:25:16;94710.74;;;17.57;49.18
49915;BME280;35806;47.958;13.158;2023-05-07T07:27:43;94710.62;;;17.93;49.13
49915;BME280;35806;47.958;13.158;2023-05-07T07:30:11;94710.15;;;17.91;49.07
49915;BME280;35806;47.958;13.158;2023-05-07T07:32:43;94710.29;;;19.02;48.38
49915;BME280;35806;47.958;13.158;2023-05-07T07:35:10;94714.03;;;18.98;47.61
49915;BME280;35806;47.958;13.158;2023-05-07T07:37:37;94711.14;;;18.41;47.48
49915;BME280;35806;47.958;13.158;2023-05-07T07:40:06;94711.65;;;18.46;46.76
49915;BME280;35806;47.958;13.158;2023-05-07T07:42:34;94712.43;;;18.69;46.33
49915;BME280;35806;47.958;13.158;2023-05-07T07:45:01;94712.26;;;18.05;48.32
49915;BME280;35806;47.958;13.158;2023-05-07T07:47:33;94707.15;;;19.56;45.77
49915;BME280;35806;47.958;13.158;2023-05-07T07:50:00;94705.45;;;19.35;46.44
49915;BME280;35806;47.958;13.158;2023-05-07T07:52:28;94710.37;;;19.68;44.96
49915;BME280;35806;47.958;13.158;2023-05-07T07:54:55;94710.64;;;19.83;44.54
49915;BME280;35806;47.958;13.158;2023-05-07T07:57:23;94707.66;;;20.19;44.55
49915;BME280;35806;47.958;13.158;2023-05-07T07:59:49;94708.31;;;20.45;44.09
49915;BME280;35806;47.958;13.158;2023-05-07T08:02:18;94709.92;;;20.39;44.06
49915;BME280;35806;47.958;13.158;2023-05-07T08:04:46;94712.85;;;20.52;43.76
49915;BME280;35806;47.958;13.158;2023-05-07T08:07:13;94714.71;;;20.80;42.28
49915;BME280;35806;47.958;13.158;2023-05-07T08:09:40;94716.16;;;21.45;42.37
49915;BME280;35806;47.958;13.158;2023-05-07T08:12:08;94719.53;;;21.59;41.89
49915;BME280;35806;47.958;13.158;2023-05-07T08:14:35;94717.74;;;21.80;41.80
49915;BME280;35806;47.958;13.158;2023-05-07T08:17:03;94720.10;;;21.70;41.67
49915;BME280;35806;47.958;13.158;2023-05-07T08:19:31;94719.32;;;22.16;40.67
49915;BME280;35806;47.958;13.158;2023-05-07T08:21:58;94721.19;;;21.52;42.14
49915;BME280;35806;47.958;13.158;2023-05-07T08:24:25;94725.80;;;21.29;42.47
49915;BME280;35806;47.958;13.158;2023-05-07T08:26:52;94723.22;;;21.33;40.75
49915;BME280;35806;47.958;13.158;2023-05-07T08:29:20;94725.44;;;21.57;41.38
49915;BME280;35806;47.958;13.158;2023-05-07T08:31:48;94724.30;;;22.24;40.92
49915;BME280;35806;47.958;13.158;2023-05-07T08:34:16;94723.59;;;21.94;40.49
49915;BME280;35806;47.958;13.158;2023-05-07T08:36:43;94723.27;;;22.89;39.74
49915;BME280;35806;47.958;13.158;2023-05-07T08:39:11;94722.33;;;22.10;40.99
49915;BME280;35806;47.958;13.158;2023-05-07T08:41:38;94723.19;;;22.64;39.79
49915;BME280;35806;47.958;13.158;2023-05-07T08:44:06;94722.37;;;22.11;40.33
49915;BME280;35806;47.958;13.158;2023-05-07T08:46:39;94721.78;;;22.34;40.34
49915;BME280;35806;47.958;13.158;2023-05-07T08:49:08;94721.60;;;21.78;42.17
49915;BME280;35806;47.958;13.158;2023-05-07T08:51:36;94723.16;;;22.14;40.73
49915;BME280;35806;47.958;13.158;2023-05-07T08:54:04;94717.97;;;21.87;40.65
49915;BME280;35806;47.958;13.158;2023-05-07T08:56:33;94717.30;;;22.39;40.33
49915;BME280;35806;47.958;13.158;2023-05-07T08:59:00;94715.85;;;22.11;40.75
49915;BME280;35806;47.958;13.158;2023-05-07T09:01:27;94718.61;;;23.28;38.96
49915;BME280;35806;47.958;13.158;2023-05-07T09:03:55;94721.51;;;22.63;40.40
49915;BME280;35806;47.958;13.158;2023-05-07T09:06:23;94722.41;;;23.38;36.99
49915;BME280;35806;47.958;13.158;2023-05-07T09:08:51;94724.10;;;22.70;39.62
49915;BME280;35806;47.958;13.158;2023-05-07T09:11:20;94726.82;;;23.70;36.18
49915;BME280;35806;47.958;13.158;2023-05-07T09:13:49;94729.10;;;24.02;36.73
49915;BME280;35806;47.958;13.158;2023-05-07T09:16:21;94729.86;;;24.10;36.24
49915;BME280;35806;47.958;13.158;2023-05-07T09:18:52;94725.98;;;23.84;36.22
49915;BME280;35806;47.958;13.158;2023-05-07T09:21:20;94730.49;;;24.27;35.49
49915;BME280;35806;47.958;13.158;2023-05-07T09:23:49;94732.85;;;23.70;36.15
49915;BME280;35806;47.958;13.158;2023-05-07T09:26:17;94730.50;;;24.34;36.14
49915;BME280;35806;47.958;13.158;2023-05-07T09:28:44;94727.64;;;24.17;35.30
49915;BME280;35806;47.958;13.158;2023-05-07T09:31:12;94727.70;;;24.07;36.92
49915;BME280;35806;47.958;13.158;2023-05-07T09:33:40;94727.24;;;23.82;36.61
49915;BME280;35806;47.958;13.158;2023-05-07T09:36:08;94726.26;;;23.69;36.41
49915;BME280;35806;47.958;13.158;2023-05-07T09:38:37;94724.73;;;23.29;36.84
49915;BME280;35806;47.958;13.158;2023-05-07T09:41:06;94722.85;;;22.73;38.25
49915;BME280;35806;47.958;13.158;2023-05-07T09:43:35;94724.20;;;23.77;36.53
49915;BME280;35806;47.958;13.158;2023-05-07T09:46:06;94723.67;;;23.39;36.64
49915;BME280;35806;47.958;13.158;2023-05-07T09:48:37;94724.79;;;23.72;36.62
49915;BME280;35806;47.958;13.158;2023-05-07T09:51:10;94725.30;;;22.27;38.07
49915;BME280;35806;47.958;13.158;2023-05-07T09:53:40;94722.33;;;23.14;39.11
49915;BME280;35806;47.958;13.158;2023-05-07T09:56:08;94718.14;;;21.92;37.97
49915;BME280;35806;47.958;13.158;2023-05-07T09:58:37;94720.74;;;21.63;40.02
49915;BME280;35806;47.958;13.158;2023-05-07T10:01:10;94718.62;;;23.07;38.49
49915;BME280;35806;47.958;13.158;2023-05-07T10:03:40;94722.24;;;22.99;35.62
49915;BME280;35806;47.958;13.158;2023-05-07T10:06:09;94719.62;;;24.59;35.09
49915;BME280;35806;47.958;13.158;2023-05-07T10:08:43;94720.98;;;24.55;37.03
49915;BME280;35806;47.958;13.158;2023-05-07T10:11:22;94714.02;;;25.09;34.65
49915;BME280;35806;47.958;13.158;2023-05-07T10:13:50;94709.40;;;22.49;36.96
49915;BME280;35806;47.958;13.158;2023-05-07T10:16:19;94713.74;;;22.70;36.63
49915;BME280;35806;47.958;13.158;2023-05-07T10:18:50;94713.35;;;23.55;34.71
49915;BME280;35806;47.958;13.158;2023-05-07T10:21:20;94710.35;;;23.45;35.23
49915;BME280;35806;47.958;13.158;2023-05-07T10:23:50;94707.97;;;22.57;35.20
49915;BME280;35806;47.958;13.158;2023-05-07T10:26:19;94704.98;;;23.13;34.41
49915;BME280;35806;47.958;13.158;2023-05-07T10:28:53;94703.17;;;23.96;34.63
49915;BME280;35806;47.958;13.158;2023-05-07T10:31:37;94703.41;;;23.69;35.75
49915;BME280;35806;47.958;13.158;2023-05-07T10:34:16;94700.42;;;24.56;34.38
49915;BME280;35806;47.958;13.158;2023-05-07T10:36:45;94701.21;;;25.01;34.03
49915;BME280;35806;47.958;13.158;2023-05-07T10:39:13;94698.26;;;24.28;34.05
49915;BME280;35806;47.958;13.158;2023-05-07T10:41:41;94698.85;;;23.36;35.21
49915;BME280;35806;47.958;13.158;2023-05-07T10:44:08;94700.14;;;25.28;32.49
49915;BME280;35806;47.958;13.158;2023-05-07T10:46:36;94700.19;;;23.21;35.55
49915;BME280;35806;47.958;13.158;2023-05-07T10:49:07;94703.65;;;22.23;37.38
49915;BME280;35806;47.958;13.158;2023-05-07T10:51:35;94707.18;;;23.68;36.31
49915;BME280;35806;47.958;13.158;2023-05-07T10:54:34;94706.19;;;24.01;34.36
49915;BME280;35806;47.958;13.158;2023-05-07T10:57:33;94704.71;;;24.56;32.47
49915;BME280;35806;47.958;13.158;2023-05-07T11:00:01;94704.18;;;24.80;31.94
49915;BME280;35806;47.958;13.158;2023-05-07T11:03:05;94702.40;;;24.01;32.96
49915;BME280;35806;47.958;13.158;2023-05-07T11:05:38;94699.11;;;25.53;34.13
49915;BME280;35806;47.958;13.158;2023-05-07T11:08:05;94697.30;;;25.49;32.57
49915;BME280;35806;47.958;13.158;2023-05-07T11:10:51;94698.74;;;25.11;28.95
49915;BME280;35806;47.958;13.158;2023-05-07T11:13:42;94696.95;;;24.64;31.76
49915;BME280;35806;47.958;13.158;2023-05-07T11:16:18;94704.61;;;25.05;31.12
49915;BME280;35806;47.958;13.158;2023-05-07T11:18:47;94704.19;;;24.19;33.86
49915;BME280;35806;47.958;13.158;2023-05-07T11:21:32;94697.92;;;24.97;30.89
49915;BME280;35806;47.958;13.158;2023-05-07T11:24:00;94697.13;;;25.40;30.71
49915;BME280;35806;47.958;13.158;2023-05-07T11:26:29;94694.66;;;24.93;30.12
49915;BME280;35806;47.958;13.158;2023-05-07T11:28:57;94693.42;;;24.43;31.99
49915;BME280;35806;47.958;13.158;2023-05-07T11:31:26;94693.73;;;23.57;32.79
49915;BME280;35806;47.958;13.158;2023-05-07T11:33:55;94691.85;;;23.78;32.24
49915;BME280;35806;47.958;13.158;2023-05-07T11:36:23;94691.54;;;23.13;33.14
49915;BME280;35806;47.958;13.158;2023-05-07T11:38:50;94689.21;;;23.45;31.07
49915;BME280;35806;47.958;13.158;2023-05-07T11:41:17;94685.61;;;23.45;32.99
49915;BME280;35806;47.958;13.158;2023-05-07T11:44:01;94685.90;;;23.48;30.93
49915;BME280;35806;47.958;13.158;2023-05-07T11:46:28;94690.91;;;24.34;30.19
49915;BME280;35806;47.958;13.158;2023-05-07T11:48:56;94687.80;;;24.78;29.72
49915;BME280;35806;47.958;13.158;2023-05-07T11:51:25;94690.86;;;25.39;30.43
49915;BME280;35806;47.958;13.158;2023-05-07T11:53:52;94692.41;;;23.91;31.54
49915;BME280;35806;47.958;13.158;2023-05-07T11:56:20;94693.31;;;23.98;30.82
49915;BME280;35806;47.958;13.158;2023-05-07T11:58:53;94691.46;;;23.49;31.43
49915;BME280;35806;47.958;13.158;2023-05-07T12:01:20;94689.26;;;23.06;33.19
49915;BME280;35806;47.958;13.158;2023-05-07T12:03:48;94685.83;;;24.62;30.40
49915;BME280;35806;47.958;13.158;2023-05-07T12:06:17;94682.07;;;25.04;32.59
49915;BME280;35806;47.958;13.158;2023-05-07T12:08:45;94679.66;;;24.65;33.57
49915;BME280;35806;47.958;13.158;2023-05-07T12:11:15;94681.41;;;24.22;31.68
49915;BME280;35806;47.958;13.158;2023-05-07T12:13:43;94679.60;;;24.94;31.88
49915;BME280;35806;47.958;13.158;2023-05-07T12:16:10;94682.71;;;25.24;30.74
49915;BME280;35806;47.958;13.158;2023-05-07T12:18:38;94689.28;;;24.02;32.65
49915;BME280;35806;47.958;13.158;2023-05-07T12:21:06;94684.53;;;25.11;30.60
49915;BME280;35806;47.958;13.158;2023-05-07T12:23:34;94684.30;;;24.78;31.47
49915;BME280;35806;47.958;13.158;2023-05-07T12:26:03;94684.65;;;24.43;30.83
49915;BME280;35806;47.958;13.158;2023-05-07T12:28:31;94685.89;;;24.03;30.94
49915;BME280;35806;47.958;13.158;2023-05-07T12:31:02;94687.87;;;24.01;33.39
49915;BME280;35806;47.958;13.158;2023-05-07T12:33:30;94688.01;;;24.45;32.10
49915;BME280;35806;47.958;13.158;2023-05-07T12:35:58;94691.56;;;23.22;32.62
49915;BME280;35806;47.958;13.158;2023-05-07T12:38:25;94689.30;;;24.02;32.44
49915;BME280;35806;47.958;13.158;2023-05-07T12:40:54;94686.52;;;24.16;32.47
49915;BME280;35806;47.958;13.158;2023-05-07T12:43:24;94684.01;;;23.82;33.22
49915;BME280;35806;47.958;13.158;2023-05-07T12:45:54;94682.40;;;24.04;33.27
49915;BME280;35806;47.958;13.158;2023-05-07T12:48:23;94682.96;;;24.30;34.34
49915;BME280;35806;47.958;13.158;2023-05-07T12:50:51;94681.35;;;23.31;34.52
49915;BME280;35806;47.958;13.158;2023-05-07T12:53:21;94679.32;;;23.41;35.07
49915;BME280;35806;47.958;13.158;2023-05-07T12:55:50;94676.89;;;22.74;34.63
49915;BME280;35806;47.958;13.158;2023-05-07T12:58:19;94676.76;;;23.47;34.85
49915;BME280;35806;47.958;13.158;2023-05-07T13:00:49;94676.62;;;24.08;34.09
49915;BME280;35806;47.958;13.158;2023-05-07T13:03:33;94672.64;;;23.37;35.21
49915;BME280;35806;47.958;13.158;2023-05-07T13:06:02;94669.42;;;23.94;35.67
49915;BME280;35806;47.958;13.158;2023-05-07T13:08:31;94666.37;;;24.64;33.38
49915;BME280;35806;47.958;13.158;2023-05-07T13:11:00;94666.06;;;23.15;35.54
49915;BME280;35806;47.958;13.158;2023-05-07T13:13:28;94662.08;;;23.93;35.63